createdAt,value
2023-04-15T00:00:17.666Z,90.37
2023-04-15T00:03:19.542Z,90.24
2023-04-15T00:06:21.631Z,90.04
2023-04-15T00:09:23.280Z,90.26
2023-04-15T00:12:25.432Z,90.06
2023-04-15T00:15:28.470Z,89.28
2023-04-15T00:18:30.160Z,89.34
2023-04-15T00:21:31.811Z,89.64
2023-04-15T00:24:33.560Z,90.21
2023-04-15T00:27:35.285Z,89.65
2023-04-15T00:30:38.515Z,90.01
2023-04-15T00:33:40.461Z,89.63
2023-04-15T00:36:42.426Z,89.42
2023-04-15T00:39:44.089Z,89.26
2023-04-15T00:42:45.993Z,89.72
2023-04-15T00:45:51.893Z,89.92
2023-04-15T00:48:55.161Z,89.80
2023-04-15T00:51:56.913Z,89.55
2023-04-15T00:54:58.703Z,89.27
2023-04-15T00:58:00.381Z,89.37
2023-04-15T01:01:04.365Z,89.67
2023-04-15T01:04:06.095Z,89.78
2023-04-15T01:07:07.745Z,89.30
2023-04-15T01:10:10.039Z,89.57
2023-04-15T01:13:11.756Z,89.60
2023-04-15T01:16:14.832Z,90.10
2023-04-15T01:19:17.436Z,90.24
2023-04-15T01:22:19.341Z,90.51
2023-04-15T01:25:31.213Z,90.37
2023-04-15T01:28:32.944Z,90.12
2023-04-15T01:31:34.683Z,89.68
2023-04-15T01:34:36.892Z,89.86
2023-04-15T01:37:38.922Z,90.66
2023-04-15T01:40:41.944Z,90.24
2023-04-15T01:43:43.533Z,89.50
2023-04-15T01:46:45.243Z,89.77
2023-04-15T01:49:46.931Z,89.78
2023-04-15T01:52:48.826Z,90.43
2023-04-15T01:55:52.487Z,90.09
2023-04-15T01:58:54.417Z,90.53
2023-04-15T02:01:56.113Z,91.10
2023-04-15T02:04:57.797Z,91.21
2023-04-15T02:07:59.403Z,91.11
2023-04-15T02:11:02.443Z,91.05
2023-04-15T02:14:04.321Z,91.32
2023-04-15T02:17:05.945Z,91.05
2023-04-15T02:20:09.464Z,91.27
2023-04-15T02:23:11.421Z,91.64
2023-04-15T02:26:14.565Z,91.55
2023-04-15T02:29:16.188Z,91.84
2023-04-15T02:32:18.127Z,91.92
2023-04-15T02:35:19.797Z,92.27
2023-04-15T02:38:21.705Z,92.37
2023-04-15T02:41:24.765Z,91.77
2023-04-15T02:44:26.450Z,92.27
2023-04-15T02:47:28.437Z,91.82
2023-04-15T02:50:30.144Z,91.40
2023-04-15T02:53:32.041Z,91.75
2023-04-15T02:56:35.021Z,91.80
2023-04-15T02:59:36.712Z,91.99
2023-04-15T03:02:39.712Z,91.88
2023-04-15T03:05:41.745Z,91.96
2023-04-15T03:08:43.737Z,91.78
2023-04-15T03:11:47.212Z,92.12
2023-04-15T03:14:49.447Z,91.64
2023-04-15T03:17:51.254Z,90.88
2023-04-15T03:20:53.023Z,91.55
2023-04-15T03:23:54.902Z,91.58
2023-04-15T03:26:58.044Z,92.04
2023-04-15T03:29:59.684Z,91.88
2023-04-15T03:33:01.499Z,91.90
2023-04-15T03:36:03.510Z,91.85
2023-04-15T03:39:05.294Z,91.60
2023-04-15T03:42:08.418Z,91.80
2023-04-15T03:45:11.087Z,92.06
2023-04-15T03:48:17.919Z,92.48
2023-04-15T03:51:20.242Z,92.12
2023-04-15T03:54:22.405Z,92.35
2023-04-15T03:57:25.397Z,92.22
2023-04-15T04:00:27.059Z,92.39
2023-04-15T04:03:28.953Z,92.17
2023-04-15T04:06:30.852Z,92.14
2023-04-15T04:09:32.872Z,92.08
2023-04-15T04:12:36.226Z,92.04
2023-04-15T04:15:38.334Z,91.52
2023-04-15T04:18:40.031Z,91.88
2023-04-15T04:21:41.738Z,91.47
2023-04-15T04:24:43.472Z,90.73
2023-04-15T04:27:46.523Z,90.75
2023-04-15T04:30:48.458Z,91.03
2023-04-15T04:33:50.580Z,91.09
2023-04-15T04:36:52.481Z,91.45
2023-04-15T04:39:54.574Z,91.50
2023-04-15T04:42:58.183Z,91.95
2023-04-15T04:45:59.928Z,92.33
2023-04-15T04:49:01.945Z,91.97
2023-04-15T04:52:03.882Z,91.89
2023-04-15T04:55:06.244Z,91.62
2023-04-15T04:58:09.283Z,91.78
2023-04-15T05:01:11.002Z,90.91
2023-04-15T05:04:13.107Z,90.86
2023-04-15T05:07:14.801Z,90.81
2023-04-15T05:10:16.691Z,90.84
2023-04-15T05:13:20.028Z,91.22
2023-04-15T05:16:22.153Z,90.58
2023-04-15T05:19:24.129Z,90.11
2023-04-15T05:22:26.070Z,89.44
2023-04-15T05:25:27.736Z,88.25
2023-04-15T05:28:30.806Z,88.53
2023-04-15T05:31:32.603Z,89.40
2023-04-15T05:34:34.325Z,89.64
2023-04-15T05:37:36.026Z,89.84
2023-04-15T05:40:37.721Z,90.44
2023-04-15T05:43:40.827Z,89.24
2023-04-15T05:46:42.963Z,89.74
2023-04-15T05:49:45.017Z,90.04
2023-04-15T05:52:46.716Z,90.52
2023-04-15T05:55:48.366Z,90.77
2023-04-15T05:58:53.379Z,90.65
2023-04-15T06:01:55.591Z,90.37
2023-04-15T06:04:57.364Z,90.55
2023-04-15T06:07:59.047Z,89.44
2023-04-15T06:11:01.361Z,89.85
2023-04-15T06:14:04.395Z,89.10
2023-04-15T06:17:06.075Z,88.65
2023-04-15T06:20:08.533Z,87.73
2023-04-15T06:23:10.280Z,86.34
2023-04-15T06:26:12.228Z,86.23
2023-04-15T06:29:15.284Z,85.46
2023-04-15T06:32:17.047Z,84.33
2023-04-15T06:35:18.916Z,84.46
2023-04-15T06:38:20.621Z,83.70
2023-04-15T06:41:22.295Z,82.98
2023-04-15T06:44:25.661Z,81.74
2023-04-15T06:47:27.413Z,82.45
2023-04-15T06:50:29.301Z,80.58
2023-04-15T06:53:31.115Z,79.99
2023-04-15T06:56:33.112Z,78.95
2023-04-15T06:59:36.123Z,78.49
2023-04-15T07:02:38.064Z,76.32
2023-04-15T07:05:39.761Z,76.30
2023-04-15T07:08:41.416Z,77.11
2023-04-15T07:11:43.341Z,76.40
2023-04-15T07:14:46.663Z,77.20
2023-04-15T07:17:48.419Z,74.91
2023-04-15T07:20:50.104Z,73.92
2023-04-15T07:23:51.772Z,72.66
2023-04-15T07:26:53.915Z,74.07
2023-04-15T07:29:57.150Z,73.61
2023-04-15T07:32:58.972Z,73.63
2023-04-15T07:36:00.655Z,72.51
2023-04-15T07:39:02.869Z,71.88
2023-04-15T07:42:04.998Z,70.50
2023-04-15T07:45:09.063Z,71.01
2023-04-15T07:48:10.696Z,68.57
2023-04-15T07:51:12.638Z,69.64
2023-04-15T07:54:14.304Z,67.42
2023-04-15T07:57:15.945Z,68.63
2023-04-15T08:00:19.157Z,67.94
2023-04-15T08:03:21.741Z,67.53
2023-04-15T08:06:23.699Z,67.09
2023-04-15T08:09:25.340Z,67.69
2023-04-15T08:12:27.063Z,66.68
2023-04-15T08:15:30.123Z,65.36
2023-04-15T08:18:31.981Z,66.69
2023-04-15T08:21:33.904Z,65.80
2023-04-15T08:24:35.571Z,65.25
2023-04-15T08:27:38.131Z,63.87
2023-04-15T08:30:41.207Z,64.51
2023-04-15T08:33:42.949Z,64.12
2023-04-15T08:36:44.768Z,61.11
2023-04-15T08:39:46.424Z,60.99
2023-04-15T08:42:52.966Z,60.26
2023-04-15T08:45:56.444Z,60.42
2023-04-15T08:48:59.247Z,60.11
2023-04-15T08:52:02.454Z,60.34
2023-04-15T08:55:05.337Z,59.96
2023-04-15T08:58:08.399Z,60.53
2023-04-15T09:01:11.989Z,60.14
2023-04-15T09:04:14.297Z,59.84
2023-04-15T09:07:16.443Z,59.63
2023-04-15T09:10:18.517Z,60.02
2023-04-15T09:13:20.530Z,61.85
2023-04-15T09:16:23.712Z,62.71
2023-04-15T09:19:25.706Z,63.64
2023-04-15T09:22:32.481Z,65.32
2023-04-15T09:25:35.080Z,65.00
2023-04-15T09:28:42.474Z,70.60
2023-04-15T09:31:45.729Z,74.37
2023-04-15T09:34:47.339Z,73.96
2023-04-15T09:37:49.356Z,73.31
2023-04-15T09:40:51.090Z,72.33
2023-04-15T09:43:53.091Z,72.38
2023-04-15T09:46:56.379Z,70.67
2023-04-15T09:49:58.949Z,71.01
2023-04-15T09:53:03.755Z,71.26
2023-04-15T09:56:05.993Z,69.67
2023-04-15T09:59:08.140Z,69.30
2023-04-15T10:02:13.802Z,68.81
2023-04-15T10:05:16.422Z,67.82
2023-04-15T10:08:20.114Z,69.14
2023-04-15T10:11:24.164Z,69.06
2023-04-15T10:14:29.831Z,67.67
2023-04-15T10:17:34.278Z,66.98
2023-04-15T10:20:36.914Z,66.78
2023-04-15T10:23:39.794Z,65.16
2023-04-15T10:26:42.620Z,63.63
2023-04-15T10:29:44.564Z,64.03
2023-04-15T10:32:48.361Z,60.81
2023-04-15T10:35:51.722Z,60.72
2023-04-15T10:38:53.366Z,60.17
2023-04-15T10:42:08.952Z,61.82
2023-04-15T10:45:17.039Z,63.22
2023-04-15T10:48:20.100Z,64.08
2023-04-15T10:51:31.798Z,65.42
2023-04-15T10:54:33.518Z,63.55
2023-04-15T10:57:37.608Z,63.21
2023-04-15T11:00:39.263Z,63.23
2023-04-15T11:03:43.658Z,63.57
2023-04-15T11:06:45.599Z,62.27
2023-04-15T11:09:47.446Z,63.22
2023-04-15T11:12:52.229Z,61.45
2023-04-15T11:15:57.588Z,61.20
2023-04-15T11:19:01.075Z,61.41
2023-04-15T11:22:07.353Z,60.30
2023-04-15T11:25:09.107Z,60.40
2023-04-15T11:28:11.936Z,61.73
2023-04-15T11:31:15.343Z,62.68
2023-04-15T11:34:23.940Z,61.71
2023-04-15T11:37:29.208Z,61.65
2023-04-15T11:40:31.537Z,61.39
2023-04-15T11:43:33.209Z,60.91
2023-04-15T11:46:34.947Z,60.83
2023-04-15T11:49:37.969Z,60.39
2023-04-15T11:52:39.658Z,61.29
2023-04-15T11:55:42.896Z,62.16
2023-04-15T11:58:44.618Z,61.60
2023-04-15T12:01:46.345Z,62.65
2023-04-15T12:04:49.468Z,60.02
2023-04-15T12:08:00.696Z,59.69
2023-04-15T12:11:02.480Z,59.72
2023-04-15T12:14:07.105Z,61.10
2023-04-15T12:17:10.877Z,59.51
2023-04-15T12:20:13.958Z,61.40
2023-04-15T12:23:19.594Z,60.18
2023-04-15T12:26:27.468Z,58.52
2023-04-15T12:29:30.522Z,58.92
2023-04-15T12:32:35.632Z,58.54
2023-04-15T12:35:39.876Z,59.23
2023-04-15T12:38:41.978Z,59.07
2023-04-15T12:41:43.852Z,59.91
2023-04-15T12:44:45.791Z,60.32
2023-04-15T12:47:47.421Z,61.60
2023-04-15T12:50:50.453Z,60.64
2023-04-15T12:53:52.060Z,62.04
2023-04-15T12:56:54.271Z,61.54
2023-04-15T12:59:55.961Z,61.72
2023-04-15T13:02:57.701Z,62.52
2023-04-15T13:06:00.857Z,62.73
2023-04-15T13:09:04.600Z,63.00
2023-04-15T13:12:07.692Z,61.88
2023-04-15T13:15:10.416Z,62.60
2023-04-15T13:18:12.100Z,61.58
2023-04-15T13:21:15.180Z,61.16
2023-04-15T13:24:17.126Z,61.61
2023-04-15T13:27:20.962Z,60.87
2023-04-15T13:30:22.709Z,60.14
2023-04-15T13:33:24.326Z,59.46
2023-04-15T13:36:27.678Z,59.96
2023-04-15T13:39:29.822Z,60.21
2023-04-15T13:42:32.092Z,61.43
2023-04-15T13:45:33.831Z,61.27
2023-04-15T13:48:35.727Z,62.25
2023-04-15T13:51:39.018Z,62.11
2023-04-15T13:54:40.698Z,62.61
2023-04-15T13:57:42.631Z,62.11
2023-04-15T14:00:44.520Z,62.38
2023-04-15T14:03:46.682Z,62.69
2023-04-15T14:06:49.795Z,64.03
2023-04-15T14:09:51.484Z,64.79
2023-04-15T14:12:53.493Z,64.62
2023-04-15T14:15:56.613Z,65.85
2023-04-15T14:18:58.967Z,66.34
2023-04-15T14:22:02.289Z,66.90
2023-04-15T14:25:04.705Z,67.19
2023-04-15T14:28:06.595Z,67.68
2023-04-15T14:31:08.750Z,65.97
2023-04-15T14:34:10.699Z,65.20
2023-04-15T14:37:14.200Z,67.16
2023-04-15T14:40:16.066Z,67.95
2023-04-15T14:43:18.267Z,68.57
2023-04-15T14:46:20.174Z,69.59
2023-04-15T14:49:22.148Z,69.98
2023-04-15T14:52:25.238Z,68.14
2023-04-15T14:55:27.253Z,67.99
2023-04-15T14:58:29.199Z,67.28
2023-04-15T15:01:31.818Z,67.73
2023-04-15T15:04:34.663Z,68.40
2023-04-15T15:07:39.617Z,67.06
2023-04-15T15:10:48.524Z,67.68
2023-04-15T15:13:51.513Z,67.91
2023-04-15T15:16:53.485Z,68.88
2023-04-15T15:19:55.464Z,68.79
2023-04-15T15:22:58.796Z,68.48
2023-04-15T15:26:00.882Z,68.70
2023-04-15T15:29:02.657Z,69.33
2023-04-15T15:32:04.829Z,69.13
2023-04-15T15:35:07.137Z,69.90
2023-04-15T15:38:11.902Z,69.54
2023-04-15T15:41:13.810Z,70.68
2023-04-15T15:44:15.581Z,70.22
2023-04-15T15:47:17.306Z,70.00
2023-04-15T15:50:19.205Z,70.68
2023-04-15T15:53:22.307Z,70.13
2023-04-15T15:56:23.954Z,69.71
2023-04-15T15:59:25.989Z,70.87
2023-04-15T16:02:52.236Z,70.22
2023-04-15T16:05:49.355Z,70.05
2023-04-15T16:08:52.380Z,70.30
2023-04-15T16:11:54.889Z,70.41
2023-04-15T16:14:56.883Z,69.95
2023-04-15T16:17:59.090Z,69.87
2023-04-15T16:21:01.017Z,71.05
2023-04-15T16:24:04.361Z,71.54
2023-04-15T16:27:06.271Z,71.86
2023-04-15T16:30:09.660Z,71.65
2023-04-15T16:33:11.638Z,71.72
2023-04-15T16:36:13.316Z,71.58
2023-04-15T16:39:16.957Z,71.92
2023-04-15T16:42:18.783Z,71.40
2023-04-15T16:45:20.517Z,72.05
2023-04-15T16:48:22.514Z,72.23
2023-04-15T16:51:24.378Z,72.16
2023-04-15T16:54:27.371Z,73.38
2023-04-15T16:57:36.591Z,74.02
2023-04-15T17:00:51.550Z,73.75
2023-04-15T17:03:55.901Z,74.31
2023-04-15T17:06:57.803Z,74.41
2023-04-15T17:10:01.374Z,74.33
2023-04-15T17:13:03.055Z,74.74
2023-04-15T17:16:05.319Z,75.12
2023-04-15T17:19:07.209Z,74.96
2023-04-15T17:22:09.181Z,75.32
2023-04-15T17:25:14.077Z,75.60
2023-04-15T17:28:15.990Z,75.84
2023-04-15T17:31:17.746Z,75.33
2023-04-15T17:34:19.698Z,75.50
2023-04-15T17:37:21.584Z,75.82
2023-04-15T17:40:24.732Z,75.89
2023-04-15T17:43:27.260Z,75.97
2023-04-15T17:46:29.759Z,76.12
2023-04-15T17:49:32.250Z,75.38
2023-04-15T17:52:34.466Z,75.46
2023-04-15T17:55:38.466Z,76.33
2023-04-15T17:58:41.456Z,76.63
2023-04-15T18:01:43.910Z,77.92
2023-04-15T18:04:46.992Z,77.62
2023-04-15T18:07:51.574Z,78.54
2023-04-15T18:10:55.774Z,78.68
2023-04-15T18:13:57.991Z,79.17
2023-04-15T18:16:59.950Z,79.71
2023-04-15T18:20:03.021Z,79.94
2023-04-15T18:23:04.866Z,80.50
2023-04-15T18:26:08.889Z,81.10
2023-04-15T18:29:12.761Z,80.91
2023-04-15T18:32:14.569Z,81.51
2023-04-15T18:35:16.734Z,81.64
2023-04-15T18:38:19.265Z,81.95
2023-04-15T18:41:22.932Z,82.26
2023-04-15T18:44:24.819Z,82.31
2023-04-15T18:47:30.533Z,81.97
2023-04-15T18:50:34.401Z,81.71
2023-04-15T18:53:37.214Z,81.95
2023-04-15T18:56:40.765Z,81.10
2023-04-15T18:59:43.481Z,81.86
2023-04-15T19:02:46.156Z,82.19
2023-04-15T19:05:48.649Z,82.23
2023-04-15T19:08:50.408Z,82.54
2023-04-15T19:11:53.753Z,83.04
2023-04-15T19:14:56.421Z,82.46
2023-04-15T19:21:19.235Z,82.41
2023-04-15T19:24:22.155Z,82.47
2023-04-15T19:27:26.863Z,83.82
2023-04-15T19:30:28.538Z,83.70
2023-04-15T19:33:31.122Z,83.62
2023-04-15T19:36:34.236Z,83.40
2023-04-15T19:39:36.547Z,83.78
2023-04-15T19:42:40.848Z,83.33
2023-04-15T19:45:43.627Z,83.43
2023-04-15T19:48:47.195Z,85.04
2023-04-15T19:51:49.906Z,85.44
2023-04-15T19:54:52.517Z,85.79
2023-04-15T19:57:56.556Z,85.65
2023-04-15T20:00:59.152Z,85.53
2023-04-15T20:04:01.453Z,86.43
2023-04-15T20:07:03.699Z,86.04
2023-04-15T20:10:08.627Z,86.35
2023-04-15T20:13:17.019Z,86.30
2023-04-15T20:16:18.963Z,86.26
2023-04-15T20:19:21.164Z,85.29
2023-04-15T20:22:23.388Z,85.25
2023-04-15T20:25:25.436Z,84.15
2023-04-15T20:28:29.350Z,84.90
2023-04-15T20:31:31.887Z,84.40
2023-04-15T20:34:33.994Z,83.88
2023-04-15T20:37:38.182Z,86.00
2023-04-15T20:40:41.708Z,85.70
2023-04-15T20:43:45.504Z,84.71
2023-04-15T20:46:47.367Z,84.54
2023-04-15T20:49:50.318Z,85.20
2023-04-15T20:52:52.542Z,85.44
2023-04-15T20:55:56.238Z,85.41
2023-04-15T20:58:59.632Z,85.31
2023-04-15T21:02:01.807Z,85.44
2023-04-15T21:05:03.904Z,86.25
2023-04-15T21:08:06.125Z,86.17
2023-04-15T21:11:08.378Z,86.81
2023-04-15T21:14:12.083Z,87.17
2023-04-15T21:17:13.958Z,86.92
2023-04-15T21:20:15.643Z,87.00
2023-04-15T21:23:17.284Z,86.64
2023-04-15T21:26:19.536Z,86.43
2023-04-15T21:29:22.919Z,86.44
2023-04-15T21:32:24.879Z,86.76
2023-04-15T21:35:26.707Z,86.67
2023-04-15T21:38:28.389Z,86.25
2023-04-15T21:41:30.053Z,86.71
2023-04-15T21:44:33.102Z,86.57
2023-04-15T21:48:00.781Z,86.68
2023-04-15T21:50:58.498Z,87.29
2023-04-15T21:54:00.272Z,87.52
2023-04-15T21:57:02.089Z,87.14
2023-04-15T22:00:06.581Z,87.71
2023-04-15T22:03:08.352Z,87.71
2023-04-15T22:06:10.102Z,88.10
2023-04-15T22:09:14.154Z,87.72
2023-04-15T22:12:16.257Z,87.87
2023-04-15T22:15:19.257Z,87.87
2023-04-15T22:18:21.176Z,88.00
2023-04-15T22:21:23.094Z,88.46
2023-04-15T22:24:34.047Z,87.89
2023-04-15T22:27:42.113Z,88.01
2023-04-15T22:30:45.121Z,87.98
2023-04-15T22:33:47.203Z,87.99
2023-04-15T22:36:49.393Z,88.56
2023-04-15T22:39:51.382Z,88.09
2023-04-15T22:42:53.022Z,87.35
2023-04-15T22:45:56.098Z,86.49
2023-04-15T22:48:57.979Z,87.65
2023-04-15T22:51:59.701Z,88.01
2023-04-15T22:55:01.390Z,88.39
2023-04-15T22:58:03.157Z,88.22
2023-04-15T23:01:06.260Z,88.18
2023-04-15T23:04:09.606Z,87.84
2023-04-15T23:07:27.687Z,88.04
2023-04-15T23:10:29.422Z,88.05
2023-04-15T23:13:31.102Z,88.50
2023-04-15T23:16:34.526Z,87.14
2023-04-15T23:19:36.398Z,87.72
2023-04-15T23:22:38.069Z,87.80
2023-04-15T23:25:39.928Z,88.02
2023-04-15T23:28:41.621Z,87.90
2023-04-15T23:31:44.887Z,87.79
2023-04-15T23:34:46.618Z,86.74
2023-04-15T23:37:48.247Z,87.34
2023-04-15T23:40:50.661Z,87.42
2023-04-15T23:43:52.841Z,87.20
2023-04-15T23:46:55.928Z,86.57
2023-04-15T23:49:57.567Z,86.55
2023-04-15T23:52:59.177Z,86.77
2023-04-15T23:56:00.767Z,87.47
2023-04-15T23:59:02.839Z,87.99
